Bookmark and Share
Track history (hours):
 

Mega Smeralda

Last reported at 2014-Apr-24 13:33 UTC. Time now 2014-Apr-24 14:02 UTC.
Position N 43°06' E 005°54'.

Length 171 m; draft 6.4 m.

Type: Passenger vessel. MMSI: 247228600.

NotesDate/timePositionNaut miles runAvg speedWind from/ knotsBaromVisibWave heightAir tempDewpointWater temp
2014-Apr-24 13:33N 43°06' E 005°54'0 0.0
2014-Apr-24 12:33N 43°06' E 005°54'0 0.0
2014-Apr-24 11:33N 43°06' E 005°54'0 0.0
2014-Apr-24 10:33N 43°06' E 005°54'0 0.0
2014-Apr-24 09:33N 43°06' E 005°54'0 0.0
2014-Apr-24 08:33N 43°06' E 005°54'0 0.0
2014-Apr-24 07:33N 43°06' E 005°54'0 0.1
2014-Apr-24 06:33N 43°06' E 005°54'2 1.7
2014-Apr-24 05:33N 43°07' E 005°56'5 5.2
2014-Apr-24 04:34N 43°03' E 005°60'1414.3
2014-Apr-24 03:34N 42°53' E 006°14'1515.3
2014-Apr-24 02:34N 42°45' E 006°32'1514.9
2014-Apr-24 01:34N 42°38' E 006°50'1414.3
2014-Apr-24 00:34N 42°30' E 007°06'1313.2
2014-Apr-23 23:33N 42°23' E 007°21'1211.8
2014-Apr-23 22:30N 42°16' E 007°35'1312.6
2014-Apr-23 21:29N 42°09' E 007°50'1612.8
2014-Apr-23 20:16N 42°01' E 008°08'1313.8
2014-Apr-23 19:19N 41°54' E 008°23'1215.3
2014-Apr-23 18:33N 41°50' E 008°37'98 4.8
2014-Apr-22 22:09N 42°40' E 006°43'1016.0
2014-Apr-22 21:33N 42°45' E 006°32'1515.5
2014-Apr-22 20:34N 42°53' E 006°15'1515.2
2014-Apr-22 19:34N 43°04' E 005°59'4 4.1
2014-Apr-22 18:33N 43°07' E 005°56'0 0.0
2014-Apr-22 17:33N 43°07' E 005°56'0 0.0
2014-Apr-22 16:33N 43°07' E 005°56'0 0.0
2014-Apr-22 15:33N 43°07' E 005°56'0 0.0
2014-Apr-22 14:33N 43°07' E 005°56'0 0.0
2014-Apr-22 13:33N 43°07' E 005°56'0 0.0
2014-Apr-22 12:33N 43°07' E 005°56'0 0.0
2014-Apr-22 11:33N 43°07' E 005°56'0 0.0
2014-Apr-22 10:33N 43°07' E 005°56'0 0.0
2014-Apr-22 09:33N 43°07' E 005°56'0 0.0
2014-Apr-22 08:33N 43°07' E 005°56'0 0.0
2014-Apr-22 07:33N 43°07' E 005°56'0 0.0
2014-Apr-22 06:33N 43°07' E 005°56'0 0.0
2014-Apr-22 05:33N 43°07' E 005°56'4 4.5
2014-Apr-22 04:33N 43°04' E 006°00'1919.0
2014-Apr-22 03:33N 42°57' E 006°24'2020.0
2014-Apr-22 02:33N 42°57' E 006°52'10019.3
2014-Apr-21 21:22N 43°03' E 009°08'46 9.2
2014-Apr-21 16:20N 42°51' E 010°09'140 7.4
2014-Apr-20 21:27N 42°58' E 006°58'1416.3
2014-Apr-20 20:34N 42°58' E 006°39'1616.1
2014-Apr-20 19:34N 42°57' E 006°17'1515.3
2014-Apr-20 18:34N 43°04' E 005°59'3 3.4
2014-Apr-20 17:33N 43°07' E 005°56'0 0.0
2014-Apr-20 16:34N 43°07' E 005°56'0 0.0
2014-Apr-20 15:33N 43°07' E 005°56'0 0.0
2014-Apr-20 14:33N 43°07' E 005°56'0 0.0
2014-Apr-20 13:34N 43°07' E 005°56'0 0.0
2014-Apr-20 12:33N 43°07' E 005°56'0 0.0
2014-Apr-20 11:33N 43°07' E 005°56'0 0.0
2014-Apr-20 10:33N 43°07' E 005°56'0 0.0
2014-Apr-20 09:33N 43°07' E 005°56'0 0.0
2014-Apr-20 08:33N 43°07' E 005°56'0 0.0
2014-Apr-20 07:33N 43°07' E 005°56'0 0.4
2014-Apr-20 06:34N 43°07' E 005°55'1312.7
2014-Apr-20 05:33N 42°58' E 006°09'2019.9
2014-Apr-20 04:33N 42°57' E 006°36'12419.7
2014-Apr-19 22:17N 43°03' E 009°25'8310.4
2014-Apr-19 14:19N 43°34' E 007°39'1520.0
2014-Apr-19 13:33N 43°40' E 007°20'3 2.6
2014-Apr-19 12:33N 43°42' E 007°17'8 7.3
2014-Apr-19 11:32N 43°37' E 007°26'8018.6
2014-Apr-19 07:12N 43°09' E 009°09'1217.8
2014-Apr-19 06:32N 43°04' E 009°24'10511.1
2014-Apr-18 21:07N 42°58' E 007°01'1018.5
2014-Apr-18 20:33N 42°57' E 006°47'1918.7
2014-Apr-18 19:33N 42°57' E 006°22'1817.8
2014-Apr-18 18:34N 43°04' E 005°59'4 4.1
2014-Apr-18 17:34N 43°07' E 005°56'0 0.0
2014-Apr-18 16:34N 43°07' E 005°56'0 0.0
2014-Apr-18 15:33N 43°07' E 005°56'0 0.0
2014-Apr-18 14:33N 43°07' E 005°56'0 0.0
2014-Apr-18 13:33N 43°07' E 005°56'0 0.0
2014-Apr-18 12:33N 43°07' E 005°56'0 0.0
2014-Apr-18 11:33N 43°07' E 005°56'0 0.0
2014-Apr-18 10:34N 43°07' E 005°56'0 0.0
2014-Apr-18 09:33N 43°07' E 005°56'0 0.0
2014-Apr-18 08:33N 43°07' E 005°56'0 0.0
2014-Apr-18 07:33N 43°07' E 005°56'0 0.0
2014-Apr-18 06:33N 43°07' E 005°56'0 0.0
2014-Apr-18 05:33N 43°07' E 005°56'1211.7
2014-Apr-18 04:33N 42°59' E 006°08'1817.8
2014-Apr-18 03:33N 42°58' E 006°32'3818.2
2014-Apr-18 01:29N 42°60' E 007°23'3517.6
2014-Apr-17 23:29N 43°02' E 008°11'1617.8
2014-Apr-17 22:33N 43°03' E 008°34'3717.2
2014-Apr-17 20:24N 43°04' E 009°25'1315.6
2014-Apr-17 19:33N 42°51' E 009°32'7 2.3
2014-Apr-17 16:15N 42°44' E 009°33'1116.2
2014-Apr-17 15:33N 42°50' E 009°46'1515.5
2014-Apr-17 14:33N 43°01' E 010°01'2019.6
2014-Apr-17 13:33N 43°20' E 010°07'1515.0
2014-Apr-17 12:34N 43°33' E 010°17'0 0.4
2014-Apr-17 11:33N 43°33' E 010°18'0 0.0
2014-Apr-17 10:33N 43°33' E 010°18'0 0.0
2014-Apr-17 09:34N 43°33' E 010°18'0 0.0
2014-Apr-17 08:34N 43°33' E 010°18'0 0.0
2014-Apr-17 07:33N 43°33' E 010°18'0 0.0
2014-Apr-17 06:34N 43°33' E 010°18'0 0.0
2014-Apr-17 05:33N 43°33' E 010°18'0 0.0
2014-Apr-17 04:33N 43°33' E 010°18'0 0.0
2014-Apr-17 03:34N 43°33' E 010°18'0 0.0
2014-Apr-17 02:34N 43°33' E 010°18'0 0.0
2014-Apr-17 01:34N 43°33' E 010°18'0 0.0
2014-Apr-17 00:34N 43°33' E 010°18'0 0.0
2014-Apr-16 23:33N 43°33' E 010°18'0 0.0
2014-Apr-16 22:34N 43°33' E 010°18'0 0.0
2014-Apr-16 21:34N 43°33' E 010°18'0 0.0
2014-Apr-16 20:34N 43°33' E 010°18'0 0.0
2014-Apr-16 19:33N 43°33' E 010°18'0 0.0
2014-Apr-16 18:33N 43°33' E 010°18'0 0.0
2014-Apr-16 17:34N 43°33' E 010°18'2 1.9
2014-Apr-16 16:33N 43°32' E 010°16'1818.0
2014-Apr-16 15:33N 43°18' E 009°60'1111.2
2014-Apr-16 14:33N 43°22' E 009°45'1918.6
2014-Apr-16 13:33N 43°40' E 009°39'1717.3
2014-Apr-16 12:33N 43°56' E 009°29'1211.7
2014-Apr-16 11:34N 44°04' E 009°17'10 9.6
2014-Apr-16 10:33N 44°10' E 009°07'8 8.4
2014-Apr-16 09:33N 44°16' E 008°59'5 4.5
2014-Apr-16 08:34N 44°21' E 008°57'4 3.5
2014-Apr-16 07:33N 44°24' E 008°56'0 0.0
2014-Apr-16 06:33N 44°24' E 008°56'0 0.0
2014-Apr-16 05:33N 44°24' E 008°56'0 0.0
2014-Apr-16 04:33N 44°24' E 008°56'0 0.0
2014-Apr-16 03:34N 44°24' E 008°56'0 0.0
2014-Apr-16 02:34N 44°24' E 008°56'0 0.0
2014-Apr-16 01:33N 44°24' E 008°56'0 0.0
2014-Apr-16 00:33N 44°24' E 008°56'0 0.0
2014-Apr-15 23:33N 44°24' E 008°56'0 0.0
2014-Apr-15 22:33N 44°24' E 008°56'0 0.0
2014-Apr-15 21:33N 44°24' E 008°56'0 0.0
2014-Apr-15 20:33N 44°24' E 008°56'0 0.0
2014-Apr-15 19:33N 44°24' E 008°56'0 0.0
2014-Apr-15 18:33N 44°24' E 008°56'0 0.0
2014-Apr-15 17:33N 44°24' E 008°56'0 0.0
2014-Apr-15 16:33N 44°24' E 008°56'0 0.0
2014-Apr-15 15:33N 44°24' E 008°56'0 0.0
2014-Apr-15 14:33N 44°24' E 008°56'0 0.0
2014-Apr-15 12:34N 44°24' E 008°56'0 0.0
2014-Apr-15 11:34N 44°24' E 008°56'0 0.0
2014-Apr-15 10:33N 44°24' E 008°56'0 0.0
2014-Apr-15 09:34N 44°24' E 008°56'0 0.0
2014-Apr-15 08:34N 44°24' E 008°56'0 0.0
2014-Apr-15 07:34N 44°24' E 008°56'0 0.0
2014-Apr-15 06:34N 44°24' E 008°56'0 0.0
2014-Apr-15 05:34N 44°24' E 008°56'0 0.0
2014-Apr-15 03:33N 44°24' E 008°56'0 0.0
2014-Apr-15 02:34N 44°24' E 008°56'0 0.0
2014-Apr-15 01:34N 44°24' E 008°56'0 0.0
2014-Apr-15 00:34N 44°24' E 008°56'0 0.0
2014-Apr-14 23:34N 44°24' E 008°56'0 0.0
2014-Apr-14 22:34N 44°24' E 008°56'0 0.0
2014-Apr-14 21:34N 44°24' E 008°56'0 0.0
2014-Apr-14 20:34N 44°24' E 008°56'0 0.0
2014-Apr-14 19:34N 44°24' E 008°56'0 0.0
2014-Apr-14 18:34N 44°24' E 008°56'0 0.0
2014-Apr-14 17:34N 44°24' E 008°56'0 0.0
2014-Apr-14 16:34N 44°24' E 008°56'0 0.0
2014-Apr-14 15:34N 44°24' E 008°56'0 0.0
2014-Apr-14 14:33N 44°24' E 008°56'0 0.0
2014-Apr-14 13:34N 44°24' E 008°56'  

Dump ship's entire track history

sailing weather and tide predictions

Mega Smeralda — ICIU — position and weather